HDGA4: War Eagle Creek At Hindsville, AR

                                SHEF ID:       HDGA4     War Eagle Crk nr Hindsville,AR
STATION TYPE:

STAGE RIV-FLOW WTR-TEMP CONDUCT BAT-LOAD
ft cfs F umho/cm volt
Ccp-Rev Ccp-Rev Ccp-Rev Ccp-Rev Ccp-Rev
(America/Chicago)
11/21 00:00 0.70 57 58.26 ---- 11.15
11/21 01:00 0.78 66 58.32 ---- 11.15
11/21 02:00 0.88 79 58.32 ---- 11.14
11/21 03:00 0.96 90 58.44 ---- 11.14
11/21 04:00 1.01 97 58.59 ---- 11.13
11/21 05:00 1.03 100 58.60 ---- 11.13
11/21 06:00 1.04 102 58.64 ---- 11.13
11/21 07:00 1.04 102 58.59 ---- 11.12
11/21 08:00 1.05 103 58.62 ---- 11.12
11/21 09:00 1.05 103 58.71 ---- 11.15
11/21 10:00 1.07 106 58.82 ---- 11.30
11/21 11:00 1.08 108 58.96 ---- 11.22
11/21 12:00 1.11 113 59.25 ---- 11.37
11/21 13:00 1.15 119 59.41 ---- 11.31
11/21 14:00 1.22 131 59.67 ---- 11.32
11/21 15:00 1.32 148 60.28 ---- 11.30
11/21 16:00 1.43 169 60.48 ---- 11.27
11/21 17:00 1.53 189 60.51 ---- 11.24
11/21 18:00 1.62 207 60.37 ---- 11.19
11/21 19:00 1.70 225 60.04 ---- 11.17
11/21 20:00 1.78 243 59.86 ---- 11.15
11/21 21:00 1.88 266 59.83 ---- 11.13
11/21 22:00 1.94 281 59.81 ---- 11.12
11/21 23:00 1.99 293 59.65 ---- 11.12
Data processed at Sat 22Nov2025 05:13 GMT

NOTICE: If you are parsing this page

Please convert to using our Data API. Starting January 1st, 2026 we will be migrating to: https://water.usace.army.mil with modern pages rendered in JavaScript. You will no longer be able to scrape this page! CWMSDataAPI (CDA)

Timeseries IDs (TSIDs)

TSIDs used from left to right in the data table
HIND.Stage.Inst.1Hour.0.Ccp-Rev
HIND.Flow.Inst.1Hour.0.Ccp-Rev
HIND.Temp-Water.Inst.1Hour.0.Ccp-Rev
HIND.Cond.Inst.1Hour.0.Ccp-Rev
HIND.Volt-Battery Load.Inst.1Hour.0.Ccp-Rev

                            

All information presented herein is the property of the government of the United States of America and may be revised or deleted at any time without prior notice. Dissemination of this information without the expressed written consent of the Public Affairs Office, Tulsa District U.S. Army Corps of Engineers is strictly prohibited. These data are gathered electronically and, as presented, have NOT undergone any form of quality control. These data are NOT guaranteed to be valid or correct.